| time (UTC) | temp C | wind direction | speed KPH | gust KPH | rain 1hr cm | rain 24hr cm | rain mn cm | humidity % | barometer mb |
| 20260507165509 | 8 | 32 | 6.4 | 11.3 | 0.00 | 1.80 | 1.40 | 89 | 1018.7 |
| 20260507164509 | 8 | 32 | 6.4 | 11.3 | 0.00 | 1.80 | 1.40 | 89 | 1018.7 |
| 20260507163510 | 8 | 5 | 8.0 | 16.1 | 0.00 | 1.80 | 1.40 | 89 | 1018.6 |
| 20260507162510 | 8 | 15 | 6.4 | 16.1 | 0.00 | 1.80 | 1.40 | 89 | 1018.5 |
| 20260507161510 | 8 | 15 | 6.4 | 16.1 | 0.00 | 1.80 | 1.40 | 89 | 1018.5 |
| 20260507160509 | 8 | 36 | 8.0 | 17.7 | 0.00 | 1.80 | 1.40 | 89 | 1018.4 |
| 20260507154510 | 8 | 13 | 6.4 | 12.9 | 0.00 | 1.80 | 1.40 | 89 | 1018.5 |
| 20260507153510 | 8 | 23 | 8.0 | 14.5 | 0.00 | 1.80 | 1.40 | 89 | 1018.2 |
| 20260507151509 | 8 | 58 | 11.3 | 17.7 | 0.00 | 1.80 | 1.40 | 89 | 1018.2 |
| 20260507150513 | 8 | 28 | 11.3 | 19.3 | 0.00 | 1.80 | 1.40 | 89 | 1018.1 |
| 20260507145510 | 8 | 46 | 9.7 | 16.1 | 0.00 | 1.80 | 1.40 | 89 | 1018.0 |
| 20260507144509 | 8 | 46 | 9.7 | 16.1 | 0.00 | 1.80 | 1.40 | 89 | 1018.0 |
| 20260507143509 | 8 | 48 | 8.0 | 17.7 | 0.00 | 1.80 | 1.40 | 88 | 1018.0 |
| 20260507142509 | 8 | 56 | 11.3 | 19.3 | 0.00 | 1.80 | 1.40 | 89 | 1017.8 |
| 20260507140509 | 8 | 49 | 9.7 | 19.3 | 0.00 | 1.80 | 1.40 | 89 | 1017.7 |
| 20260507135509 | 8 | 38 | 9.7 | 17.7 | 0.00 | 1.80 | 1.40 | 89 | 1017.6 |
| 20260507134509 | 8 | 38 | 9.7 | 17.7 | 0.00 | 1.80 | 1.40 | 89 | 1017.6 |
| 20260507133509 | 8 | 14 | 9.7 | 17.7 | 0.03 | 1.80 | 1.40 | 89 | 1017.6 |
| 20260507132509 | 8 | 67 | 9.7 | 17.7 | 0.05 | 1.80 | 1.40 | 90 | 1017.4 |
| 20260507131509 | 8 | 67 | 9.7 | 17.7 | 0.05 | 1.80 | 1.40 | 90 | 1017.4 |
| 20260507130510 | 8 | 54 | 9.7 | 19.3 | 0.05 | 1.80 | 1.40 | 89 | 1017.3 |
| 20260507124509 | 8 | 5 | 9.7 | 16.1 | 0.05 | 1.80 | 1.40 | 90 | 1017.3 |
| 20260507121509 | 8 | 53 | 9.7 | 16.1 | 0.05 | 1.75 | 1.37 | 89 | 1016.9 |
| 20260507115509 | 8 | 346 | 11.3 | 17.7 | 0.05 | 1.75 | 1.35 | 89 | 1016.4 |
| 20260507113509 | 8 | 52 | 9.7 | 16.1 | 0.05 | 1.75 | 1.35 | 90 | 1016.3 |
| 20260507110509 | 8 | 5 | 9.7 | 17.7 | 0.03 | 1.73 | 1.32 | 90 | 1016.1 |
| 20260507105509 | 8 | 27 | 9.7 | 16.1 | 0.00 | 1.70 | 1.30 | 90 | 1016.1 |
| 20260507104509 | 8 | 27 | 9.7 | 16.1 | 0.00 | 1.70 | 1.30 | 90 | 1016.1 |
| 20260507102509 | 8 | 38 | 9.7 | 17.7 | 0.00 | 1.70 | 1.30 | 90 | 1015.8 |
| 20260507101509 | 8 | 38 | 9.7 | 17.7 | 0.00 | 1.70 | 1.30 | 90 | 1015.8 |
| 20260507100509 | 8 | 42 | 9.7 | 19.3 | 0.03 | 1.70 | 1.30 | 90 | 1015.7 |
| 20260507095509 | 8 | 25 | 8.0 | 17.7 | 0.05 | 1.70 | 1.30 | 90 | 1015.6 |
| 20260507094509 | 8 | 25 | 8.0 | 17.7 | 0.05 | 1.70 | 1.30 | 90 | 1015.6 |
| 20260507093509 | 8 | 61 | 11.3 | 20.9 | 0.05 | 1.70 | 1.30 | 90 | 1015.4 |
| 20260507092509 | 7 | 63 | 11.3 | 19.3 | 0.08 | 1.70 | 1.30 | 90 | 1015.1 |
| 20260507091509 | 7 | 63 | 11.3 | 19.3 | 0.08 | 1.70 | 1.30 | 90 | 1015.1 |
| 20260507090509 | 8 | 51 | 9.7 | 19.3 | 0.15 | 1.68 | 1.27 | 90 | 1014.9 |
| 20260507085509 | 7 | 51 | 12.9 | 20.9 | 0.25 | 1.65 | 1.27 | 90 | 1014.8 |
| 20260507084509 | 7 | 51 | 12.9 | 20.9 | 0.25 | 1.65 | 1.27 | 90 | 1014.8 |
| 20260507083509 | 7 | 14 | 8.0 | 17.7 | 0.33 | 1.65 | 1.24 | 90 | 1014.6 |
| 20260507082509 | 7 | 40 | 6.4 | 14.5 | 0.36 | 1.63 | 1.22 | 90 | 1014.5 |
| 20260507081509 | 7 | 40 | 6.4 | 14.5 | 0.36 | 1.63 | 1.22 | 90 | 1014.5 |
| 20260507080509 | 7 | 40 | 6.4 | 14.5 | 0.33 | 1.55 | 1.14 | 90 | 1014.5 |
| 20260507075509 | 7 | 45 | 9.7 | 19.3 | 0.23 | 1.40 | 0.99 | 90 | 1014.3 |
| 20260507074509 | 7 | 45 | 9.7 | 19.3 | 0.23 | 1.40 | 0.99 | 90 | 1014.3 |
| 20260507073509 | 7 | 36 | 11.3 | 17.7 | 0.15 | 1.30 | 0.89 | 90 | 1014.2 |
| 20260507072509 | 7 | 46 | 9.7 | 16.1 | 0.15 | 1.27 | 0.86 | 90 | 1014.0 |
| 20260507071509 | 7 | 46 | 9.7 | 16.1 | 0.15 | 1.27 | 0.86 | 90 | 1014.0 |
| 20260507070509 | 7 | 11 | 11.3 | 20.9 | 0.13 | 1.19 | 0.79 | 90 | 1013.8 |
| 20260507065509 | 7 | 44 | 6.4 | 16.1 | 0.15 | 1.17 | 0.79 | 90 | 1013.8 |
| 20260507064509 | 7 | 44 | 6.4 | 16.1 | 0.15 | 1.17 | 0.79 | 90 | 1013.8 |
| 20260507063509 | 7 | 44 | 8.0 | 14.5 | 0.18 | 1.14 | 0.74 | 90 | 1013.5 |
| 20260507062509 | 7 | 59 | 8.0 | 16.1 | 0.20 | 1.09 | 0.71 | 90 | 1013.4 |
| 20260507061509 | 7 | 59 | 8.0 | 16.1 | 0.20 | 1.09 | 0.71 | 90 | 1013.4 |
| 20260507060509 | 7 | 31 | 9.7 | 16.1 | 0.20 | 1.09 | 0.69 | 90 | 1013.2 |
| 20260507055509 | 7 | 42 | 9.7 | 19.3 | 0.15 | 1.02 | 0.61 | 90 | 1013.0 |
| 20260507054509 | 7 | 42 | 9.7 | 19.3 | 0.15 | 1.02 | 0.61 | 90 | 1013.0 |
| 20260507053509 | 7 | 38 | 11.3 | 22.5 | 0.13 | 0.97 | 0.56 | 90 | 1012.9 |
| 20260507052509 | 8 | 34 | 11.3 | 22.5 | 0.08 | 0.89 | 0.51 | 89 | 1012.7 |
| 20260507050509 | 8 | 48 | 9.7 | 16.1 | 0.08 | 0.89 | 0.48 | 90 | 1012.6 |
| 20260507045509 | 8 | 65 | 9.7 | 16.1 | 0.08 | 0.86 | 0.46 | 90 | 1012.4 |
| 20260507044509 | 8 | 65 | 9.7 | 16.1 | 0.08 | 0.86 | 0.46 | 90 | 1012.4 |
| 20260507043509 | 8 | 51 | 8.0 | 19.3 | 0.05 | 0.84 | 0.43 | 90 | 1012.3 |
| 20260507041509 | 8 | 46 | 9.7 | 16.1 | 0.05 | 0.81 | 0.43 | 90 | 1012.2 |
| 20260507035509 | 8 | 64 | 11.3 | 17.7 | 0.03 | 0.79 | 0.38 | 90 | 1012.0 |
| 20260507034509 | 8 | 64 | 11.3 | 17.7 | 0.03 | 0.79 | 0.38 | 90 | 1012.0 |
| 20260507033509 | 8 | 17 | 9.7 | 19.3 | 0.03 | 0.79 | 0.38 | 90 | 1011.8 |
| 20260507032509 | 8 | 21 | 8.0 | 14.5 | 0.03 | 0.79 | 0.38 | 90 | 1011.9 |
| 20260507031509 | 8 | 21 | 8.0 | 14.5 | 0.03 | 0.79 | 0.38 | 90 | 1011.9 |
| 20260507030509 | 8 | 27 | 8.0 | 14.5 | 0.05 | 0.79 | 0.38 | 90 | 1011.8 |
| 20260507025509 | 9 | 25 | 6.4 | 12.9 | 0.05 | 0.79 | 0.36 | 90 | 1011.8 |
| 20260507024509 | 9 | 25 | 6.4 | 12.9 | 0.05 | 0.79 | 0.36 | 90 | 1011.8 |
| 20260507023509 | 9 | 26 | 6.4 | 14.5 | 0.05 | 0.79 | 0.36 | 90 | 1011.7 |
| 20260507022509 | 9 | 42 | 6.4 | 12.9 | 0.05 | 0.79 | 0.36 | 90 | 1011.8 |
| 20260507021509 | 9 | 42 | 6.4 | 12.9 | 0.05 | 0.79 | 0.36 | 90 | 1011.8 |
| 20260507020509 | 9 | 53 | 8.0 | 16.1 | 0.03 | 0.74 | 0.33 | 89 | 1011.6 |
| 20260507015509 | 9 | 38 | 6.4 | 14.5 | 0.00 | 0.74 | 0.30 | 90 | 1011.4 |
| 20260507014509 | 9 | 38 | 6.4 | 14.5 | 0.00 | 0.74 | 0.30 | 90 | 1011.4 |
| 20260507013509 | 9 | 36 | 8.0 | 16.1 | 0.00 | 0.74 | 0.30 | 90 | 1011.1 |
| 20260507012509 | 9 | 5 | 6.4 | 12.9 | 0.00 | 0.74 | 0.30 | 90 | 1011.1 |
| 20260507010509 | 9 | 45 | 6.4 | 14.5 | 0.00 | 0.74 | 0.30 | 90 | 1011.0 |
| 20260507005508 | 10 | 42 | 8.0 | 14.5 | 0.00 | 0.74 | 0.30 | 90 | 1010.8 |
| 20260507004509 | 10 | 42 | 8.0 | 14.5 | 0.00 | 0.74 | 0.30 | 90 | 1010.8 |
| 20260507003509 | 10 | 34 | 6.4 | 12.9 | 0.03 | 0.74 | 0.30 | 90 | 1010.8 |
| 20260507002508 | 10 | 50 | 8.0 | 12.9 | 0.03 | 0.74 | 0.30 | 90 | 1010.8 |
| 20260507001508 | 10 | 50 | 8.0 | 12.9 | 0.03 | 0.74 | 0.30 | 90 | 1010.8 |
| 20260507000508 | 10 | 355 | 9.7 | 17.7 | 0.03 | 0.74 | 0.30 | 89 | 1010.7 |
| 20260506235509 | 10 | 41 | 9.7 | 14.5 | 0.03 | 0.76 | 0.30 | 89 | 1010.4 |
| 20260506234509 | 10 | 41 | 9.7 | 14.5 | 0.03 | 0.76 | 0.30 | 89 | 1010.4 |
| 20260506233509 | 10 | 47 | 8.0 | 19.3 | 0.10 | 0.74 | 0.28 | 89 | 1010.2 |
| 20260506232508 | 10 | 49 | 8.0 | 17.7 | 0.18 | 0.74 | 0.28 | 89 | 1010.4 |
| 20260506231508 | 10 | 49 | 8.0 | 17.7 | 0.18 | 0.74 | 0.28 | 89 | 1010.4 |
| 20260506225508 | 10 | 55 | 8.0 | 16.1 | 0.28 | 0.89 | 0.28 | 89 | 1010.5 |
| 20260506224509 | 10 | 55 | 8.0 | 16.1 | 0.28 | 0.89 | 0.28 | 89 | 1010.5 |
| 20260506223508 | 10 | 61 | 9.7 | 14.5 | 0.25 | 0.79 | 0.18 | 88 | 1010.3 |
| 20260506222508 | 11 | 81 | 6.4 | 16.1 | 0.33 | 0.71 | 0.10 | 88 | 1010.2 |
| 20260506220508 | 11 | 78 | 3.2 | 8.0 | 0.51 | 0.71 | 0.10 | 88 | 1010.4 |
| 20260506215508 | 11 | 71 | 8.0 | 16.1 | 0.41 | 1.19 | 1.19 | 87 | 1010.4 |
| 20260506214508 | 11 | 71 | 8.0 | 16.1 | 0.41 | 1.19 | 1.19 | 87 | 1010.4 |
| 20260506213509 | 11 | 57 | 9.7 | 17.7 | 0.33 | 1.12 | 1.12 | 87 | 1010.1 |
| 20260506212508 | 12 | 44 | 8.0 | 17.7 | 0.18 | 0.99 | 0.99 | 86 | 1010.0 |
| 20260506210508 | 12 | 339 | 6.4 | 17.7 | 0.00 | 0.79 | 0.79 | 85 | 1010.3 |
| 20260506205508 | 12 | 348 | 6.4 | 12.9 | 0.00 | 1.14 | 0.79 | 85 | 1010.0 |
| 20260506204508 | 12 | 348 | 6.4 | 12.9 | 0.00 | 1.14 | 0.79 | 85 | 1010.0 |
| 20260506202508 | 12 | 337 | 3.2 | 8.0 | 0.00 | 1.14 | 0.79 | 86 | 1009.7 |
| 20260506201508 | 12 | 337 | 3.2 | 8.0 | 0.00 | 1.14 | 0.79 | 86 | 1009.7 |
| 20260506194508 | 12 | 40 | 3.2 | 8.0 | 0.00 | 1.17 | 0.79 | 85 | 1009.2 |
| 20260506193508 | 12 | 57 | 4.8 | 9.7 | 0.00 | 1.17 | 0.79 | 85 | 1009.0 |
| 20260506192508 | 12 | 24 | 4.8 | 14.5 | 0.00 | 1.17 | 0.79 | 84 | 1008.9 |
| 20260506190508 | 12 | 56 | 4.8 | 8.0 | 0.00 | 1.17 | 0.79 | 84 | 1008.7 |
| 20260506185508 | 13 | 59 | 6.4 | 16.1 | 0.00 | 1.17 | 0.79 | 83 | 1008.6 |
| 20260506184508 | 13 | 59 | 6.4 | 16.1 | 0.00 | 1.17 | 0.79 | 83 | 1008.6 |
| 20260506183508 | 13 | 46 | 6.4 | 12.9 | 0.00 | 1.17 | 0.79 | 82 | 1008.4 |
| 20260506181508 | 13 | 44 | 8.0 | 19.3 | 0.00 | 1.17 | 0.79 | 82 | 1008.4 |
| 20260506180508 | 13 | 57 | 11.3 | 19.3 | 0.00 | 1.17 | 0.79 | 80 | 1008.4 |
| 20260506175512 | 14 | 15 | 14.5 | 24.1 | 0.00 | 1.17 | 0.79 | 79 | 1008.3 |
| 20260506174508 | 14 | 15 | 14.5 | 24.1 | 0.00 | 1.17 | 0.79 | 79 | 1008.3 |
| 20260506173508 | 15 | 50 | 14.5 | 24.1 | 0.00 | 1.17 | 0.79 | 80 | 1008.2 |
| 20260506172508 | 15 | 53 | 14.5 | 24.1 | 0.00 | 1.17 | 0.79 | 80 | 1008.1 |
| 20260506171508 | 15 | 53 | 14.5 | 24.1 | 0.00 | 1.17 | 0.79 | 80 | 1008.1 |
| 20260506170508 | 15 | 46 | 9.7 | 20.9 | 0.00 | 1.17 | 0.79 | 80 | 1007.9 |